createdAt,value
2023-05-20T00:01:00.890Z,13.70
2023-05-20T00:03:27.905Z,13.60
2023-05-20T00:05:54.548Z,13.60
2023-05-20T00:08:21.251Z,13.70
2023-05-20T00:10:47.979Z,13.70
2023-05-20T00:13:14.556Z,13.60
2023-05-20T00:15:41.176Z,13.70
2023-05-20T00:18:07.856Z,13.70
2023-05-20T00:20:34.488Z,13.70
2023-05-20T00:23:01.216Z,13.70
2023-05-20T00:25:27.885Z,13.70
2023-05-20T00:27:54.474Z,13.70
2023-05-20T00:30:21.748Z,13.70
2023-05-20T00:32:48.473Z,13.70
2023-05-20T00:35:15.330Z,13.70
2023-05-20T00:37:41.989Z,13.70
2023-05-20T00:40:08.884Z,13.70
2023-05-20T00:42:35.620Z,13.70
2023-05-20T00:45:02.280Z,13.70
2023-05-20T00:47:30.544Z,13.70
2023-05-20T00:49:57.726Z,13.70
2023-05-20T00:52:25.300Z,13.70
2023-05-20T00:54:52.276Z,13.70
2023-05-20T00:57:19.969Z,13.70
2023-05-20T00:59:46.622Z,13.70
2023-05-20T01:02:13.309Z,13.70
2023-05-20T01:04:40.130Z,13.70
2023-05-20T01:07:07.266Z,13.60
2023-05-20T01:09:34.037Z,13.60
2023-05-20T01:12:13.058Z,13.60
2023-05-20T01:14:43.918Z,13.60
2023-05-20T01:17:12.630Z,13.60
2023-05-20T01:19:44.012Z,13.60
2023-05-20T01:22:12.704Z,13.60
2023-05-20T01:24:43.155Z,13.60
2023-05-20T01:27:10.898Z,13.50
2023-05-20T01:29:37.864Z,13.50
2023-05-20T01:32:17.691Z,13.40
2023-05-20T01:34:45.533Z,13.40
2023-05-20T01:37:13.182Z,13.40
2023-05-20T01:39:43.675Z,13.30
2023-05-20T01:42:10.888Z,13.30
2023-05-20T01:44:37.643Z,13.30
2023-05-20T01:47:04.571Z,13.30
2023-05-20T01:49:31.344Z,13.30
2023-05-20T01:51:58.193Z,13.30
2023-05-20T01:54:24.876Z,13.30
2023-05-20T01:56:51.544Z,13.20
2023-05-20T01:59:18.207Z,13.20
2023-05-20T02:01:46.135Z,13.20
2023-05-20T02:04:12.975Z,13.20
2023-05-20T02:06:39.615Z,13.20
2023-05-20T02:09:06.450Z,13.20
2023-05-20T02:11:33.106Z,13.20
2023-05-20T02:13:59.758Z,13.20
2023-05-20T02:19:54.489Z,13.20
2023-05-20T02:22:21.093Z,13.30
2023-05-20T02:24:47.740Z,13.30
2023-05-20T02:27:14.407Z,13.30
2023-05-20T02:29:41.299Z,13.30
2023-05-20T02:32:08.890Z,13.30
2023-05-20T02:34:35.519Z,13.30
2023-05-20T02:37:02.125Z,13.30
2023-05-20T02:39:28.765Z,13.20
2023-05-20T02:41:55.995Z,13.20
2023-05-20T02:44:37.022Z,13.20
2023-05-20T02:47:03.622Z,13.20
2023-05-20T02:49:30.535Z,13.20
2023-05-20T02:51:57.145Z,13.20
2023-05-20T02:54:23.734Z,13.20
2023-05-20T02:56:50.313Z,13.10
2023-05-20T02:59:16.955Z,13.10
2023-05-20T03:01:43.634Z,13.10
2023-05-20T03:04:10.410Z,13.10
2023-05-20T03:06:38.152Z,13.10
2023-05-20T03:09:05.741Z,13.10
2023-05-20T03:11:32.364Z,13.00
2023-05-20T03:13:59.054Z,13.00
2023-05-20T03:16:25.760Z,13.00
2023-05-20T03:18:54.614Z,13.00
2023-05-20T03:21:23.928Z,13.00
2023-05-20T03:23:50.644Z,13.00
2023-05-20T03:26:17.599Z,13.00
2023-05-20T03:28:44.181Z,13.00
2023-05-20T03:31:10.817Z,13.00
2023-05-20T03:33:37.476Z,13.00
2023-05-20T03:36:04.246Z,13.00
2023-05-20T03:38:31.005Z,13.00
2023-05-20T03:40:57.618Z,13.00
2023-05-20T03:43:25.271Z,12.90
2023-05-20T03:45:51.917Z,12.90
2023-05-20T03:48:18.539Z,13.00
2023-05-20T03:50:45.169Z,12.90
2023-05-20T03:53:11.860Z,12.90
2023-05-20T03:55:39.508Z,12.90
2023-05-20T03:58:06.128Z,12.80
2023-05-20T04:00:32.966Z,12.80
2023-05-20T04:02:59.719Z,12.70
2023-05-20T04:05:26.947Z,12.70
2023-05-20T04:07:53.552Z,12.70
2023-05-20T04:10:20.809Z,12.70
2023-05-20T04:12:47.497Z,12.70
2023-05-20T04:15:15.041Z,12.70
2023-05-20T04:17:42.098Z,12.70
2023-05-20T04:20:11.275Z,12.60
2023-05-20T04:22:39.527Z,12.70
2023-05-20T04:25:07.112Z,12.70
2023-05-20T04:27:33.925Z,12.80
2023-05-20T04:30:02.289Z,12.80
2023-05-20T04:32:28.997Z,12.80
2023-05-20T04:34:56.175Z,12.80
2023-05-20T04:37:22.800Z,12.80
2023-05-20T04:39:49.967Z,12.80
2023-05-20T04:42:20.228Z,12.80
2023-05-20T04:44:48.076Z,12.80
2023-05-20T04:47:15.004Z,12.80
2023-05-20T04:49:42.248Z,12.80
2023-05-20T04:52:08.827Z,12.80
2023-05-20T04:54:35.443Z,12.90
2023-05-20T04:57:02.881Z,12.90
2023-05-20T04:59:29.497Z,13.00
2023-05-20T05:01:56.214Z,13.10
2023-05-20T05:04:23.264Z,13.30
2023-05-20T05:06:49.993Z,13.40
2023-05-20T05:09:16.795Z,13.50
2023-05-20T05:11:43.367Z,13.60
2023-05-20T05:14:09.991Z,13.80
2023-05-20T05:16:36.711Z,13.80
2023-05-20T05:19:03.457Z,13.90
2023-05-20T05:21:30.109Z,14.00
2023-05-20T05:23:58.523Z,14.00
2023-05-20T05:26:26.451Z,14.10
2023-05-20T05:28:54.674Z,14.10
2023-05-20T05:31:21.378Z,14.10
2023-05-20T05:33:48.015Z,14.00
2023-05-20T05:36:15.748Z,13.90
2023-05-20T05:38:42.456Z,13.90
2023-05-20T05:41:09.046Z,13.90
2023-05-20T05:43:35.695Z,13.70
2023-05-20T05:46:02.545Z,13.70
2023-05-20T05:48:29.155Z,13.70
2023-05-20T05:50:55.784Z,13.70
2023-05-20T05:53:22.378Z,13.80
2023-05-20T05:55:49.086Z,13.80
2023-05-20T05:58:15.812Z,13.80
2023-05-20T06:00:42.489Z,13.80
2023-05-20T06:03:09.363Z,13.90
2023-05-20T06:05:36.172Z,13.90
2023-05-20T06:08:03.026Z,13.90
2023-05-20T06:10:29.599Z,13.90
2023-05-20T06:12:56.189Z,14.00
2023-05-20T06:15:22.778Z,14.00
2023-05-20T06:17:49.445Z,14.00
2023-05-20T06:20:16.278Z,14.00
2023-05-20T06:22:42.886Z,14.00
2023-05-20T06:25:09.849Z,14.00
2023-05-20T06:27:36.461Z,14.10
2023-05-20T06:30:03.145Z,14.10
2023-05-20T06:32:29.798Z,14.10
2023-05-20T06:34:56.397Z,14.10
2023-05-20T06:37:25.998Z,14.10
2023-05-20T06:39:54.048Z,14.10
2023-05-20T06:42:21.444Z,14.10
2023-05-20T06:44:48.169Z,14.10
2023-05-20T06:47:16.077Z,14.10
2023-05-20T06:49:45.050Z,14.10
2023-05-20T06:52:13.914Z,14.10
2023-05-20T06:54:41.557Z,14.10
2023-05-20T06:57:08.847Z,14.20
2023-05-20T06:59:36.043Z,14.10
2023-05-20T07:02:03.282Z,14.00
2023-05-20T07:04:30.061Z,14.00
2023-05-20T07:06:56.725Z,14.00
2023-05-20T07:09:23.743Z,14.10
2023-05-20T07:11:50.611Z,14.10
2023-05-20T07:14:17.428Z,14.10
2023-05-20T07:16:44.046Z,14.20
2023-05-20T07:19:10.806Z,14.30
2023-05-20T07:21:37.445Z,14.40
2023-05-20T07:24:04.130Z,14.50
2023-05-20T07:26:33.633Z,14.50
2023-05-20T07:29:00.330Z,14.60
2023-05-20T07:31:27.151Z,14.70
2023-05-20T07:33:53.880Z,14.80
2023-05-20T07:36:20.896Z,14.90
2023-05-20T07:38:57.048Z,15.00
2023-05-20T07:41:28.874Z,15.10
2023-05-20T07:43:55.573Z,15.20
2023-05-20T07:46:22.223Z,15.20
2023-05-20T07:48:48.848Z,15.30
2023-05-20T07:51:15.423Z,15.30
2023-05-20T07:53:42.013Z,15.30
2023-05-20T07:56:08.652Z,15.30
2023-05-20T07:58:35.299Z,15.30
2023-05-20T08:01:02.065Z,15.30
2023-05-20T08:03:28.786Z,15.30
2023-05-20T08:05:55.478Z,15.40
2023-05-20T08:08:22.066Z,15.40
2023-05-20T08:10:49.055Z,15.40
2023-05-20T08:13:15.620Z,15.40
2023-05-20T08:15:42.395Z,15.40
2023-05-20T08:18:09.045Z,15.50
2023-05-20T08:20:36.051Z,15.50
2023-05-20T08:23:02.738Z,15.60
2023-05-20T08:25:30.654Z,15.60
2023-05-20T08:27:57.283Z,15.70
2023-05-20T08:30:23.872Z,15.80
2023-05-20T08:32:50.549Z,15.90
2023-05-20T08:35:17.190Z,16.10
2023-05-20T08:37:43.809Z,16.20
2023-05-20T08:40:11.749Z,16.40
2023-05-20T08:42:40.855Z,16.60
2023-05-20T08:45:07.714Z,16.70
2023-05-20T08:47:34.380Z,16.80
2023-05-20T08:50:01.084Z,16.90
2023-05-20T08:52:28.171Z,16.90
2023-05-20T08:54:55.230Z,17.00
2023-05-20T08:57:22.257Z,17.00
2023-05-20T08:59:49.013Z,17.00
2023-05-20T09:02:15.760Z,17.10
2023-05-20T09:11:14.169Z,17.40
2023-05-20T09:13:40.992Z,17.50
2023-05-20T09:16:09.758Z,17.70
2023-05-20T09:18:52.243Z,17.80
2023-05-20T09:21:24.715Z,17.90
2023-05-20T09:23:53.213Z,17.90
2023-05-20T09:26:20.239Z,18.00
2023-05-20T09:28:47.069Z,18.00
2023-05-20T09:31:14.861Z,18.10
2023-05-20T09:33:41.633Z,18.20
2023-05-20T09:36:09.477Z,18.30
2023-05-20T09:38:40.199Z,18.30
2023-05-20T09:41:10.347Z,18.30
2023-05-20T09:43:38.066Z,18.30
2023-05-20T09:46:05.774Z,18.30
2023-05-20T09:48:34.213Z,18.30
2023-05-20T09:51:02.680Z,18.30
2023-05-20T09:53:29.706Z,18.40
2023-05-20T09:55:56.415Z,18.40
2023-05-20T09:58:25.206Z,18.40
2023-05-20T10:00:52.716Z,18.40
2023-05-20T10:03:22.789Z,18.50
2023-05-20T10:05:56.076Z,18.60
2023-05-20T10:08:44.716Z,18.70
2023-05-20T10:11:35.991Z,18.80
2023-05-20T10:14:28.307Z,18.90
2023-05-20T10:17:01.428Z,18.90
2023-05-20T10:19:33.926Z,18.90
2023-05-20T10:22:08.701Z,18.90
2023-05-20T10:24:44.204Z,18.90
2023-05-20T10:27:14.775Z,18.90
2023-05-20T10:29:51.330Z,18.80
2023-05-20T10:32:25.089Z,18.90
2023-05-20T10:34:52.180Z,18.90
2023-05-20T10:37:27.916Z,18.90
2023-05-20T10:40:05.889Z,18.90
2023-05-20T10:42:32.900Z,18.80
2023-05-20T10:44:59.625Z,18.70
2023-05-20T10:47:26.718Z,18.70
2023-05-20T10:49:53.598Z,18.70
2023-05-20T10:52:20.700Z,18.70
2023-05-20T10:54:58.107Z,18.70
2023-05-20T10:57:27.684Z,18.70
2023-05-20T10:59:55.196Z,18.90
2023-05-20T11:02:28.514Z,19.00
2023-05-20T11:04:58.992Z,19.20
2023-05-20T11:07:29.915Z,19.30
2023-05-20T11:09:57.586Z,19.50
2023-05-20T11:12:25.868Z,19.50
2023-05-20T11:14:52.840Z,19.50
2023-05-20T11:17:20.624Z,19.40
2023-05-20T11:19:48.447Z,19.40
2023-05-20T11:22:15.141Z,19.40
2023-05-20T11:24:41.996Z,19.50
2023-05-20T11:27:09.293Z,19.60
2023-05-20T11:29:36.106Z,19.70
2023-05-20T11:32:02.910Z,19.70
2023-05-20T11:34:36.834Z,19.70
2023-05-20T11:37:10.047Z,19.80
2023-05-20T11:39:37.758Z,19.80
2023-05-20T11:42:06.031Z,19.80
2023-05-20T11:44:33.215Z,19.90
2023-05-20T11:47:01.960Z,20.00
2023-05-20T11:49:29.030Z,20.10
2023-05-20T11:51:57.063Z,20.20
2023-05-20T11:54:24.696Z,20.20
2023-05-20T11:56:51.638Z,20.10
2023-05-20T11:59:18.349Z,20.10
2023-05-20T12:01:45.719Z,20.10
2023-05-20T12:04:16.495Z,20.10
2023-05-20T12:06:44.062Z,20.20
2023-05-20T12:09:11.396Z,20.40
2023-05-20T12:11:41.121Z,20.60
2023-05-20T12:14:08.649Z,20.60
2023-05-20T12:16:36.387Z,20.60
2023-05-20T12:19:04.181Z,20.60
2023-05-20T12:21:31.565Z,20.60
2023-05-20T12:24:01.705Z,20.60
2023-05-20T12:26:29.562Z,20.70
2023-05-20T12:28:57.459Z,20.70
2023-05-20T12:31:25.650Z,20.70
2023-05-20T12:33:52.382Z,20.80
2023-05-20T12:36:19.699Z,20.90
2023-05-20T12:38:46.764Z,21.00
2023-05-20T12:41:13.552Z,20.90
2023-05-20T12:43:40.250Z,20.90
2023-05-20T12:46:07.046Z,20.90
2023-05-20T12:48:33.781Z,20.90
2023-05-20T12:51:00.895Z,20.80
2023-05-20T12:53:27.587Z,20.80
2023-05-20T12:55:54.458Z,20.90
2023-05-20T12:58:21.209Z,20.90
2023-05-20T13:00:48.001Z,20.80
2023-05-20T13:03:15.021Z,20.80
2023-05-20T13:05:41.950Z,20.80
2023-05-20T13:08:10.110Z,20.90
2023-05-20T13:10:37.181Z,21.00
2023-05-20T13:13:04.326Z,21.00
2023-05-20T13:15:33.079Z,21.00
2023-05-20T13:18:01.482Z,21.10
2023-05-20T13:20:29.244Z,21.10
2023-05-20T13:22:55.896Z,21.10
2023-05-20T13:25:22.573Z,21.20
2023-05-20T13:27:49.314Z,21.30
2023-05-20T13:30:16.093Z,21.40
2023-05-20T13:32:42.829Z,21.40
2023-05-20T13:35:09.765Z,21.40
2023-05-20T13:37:36.476Z,21.30
2023-05-20T13:40:03.286Z,21.40
2023-05-20T13:42:29.996Z,21.40
2023-05-20T13:44:57.088Z,21.40
2023-05-20T13:47:23.799Z,21.40
2023-05-20T13:49:50.564Z,21.30
2023-05-20T13:52:17.402Z,21.30
2023-05-20T13:54:46.700Z,21.40
2023-05-20T13:57:13.804Z,21.30
2023-05-20T13:59:40.650Z,21.30
2023-05-20T14:02:07.929Z,21.40
2023-05-20T14:04:39.446Z,21.40
2023-05-20T14:07:09.339Z,21.40
2023-05-20T14:09:36.897Z,21.50
2023-05-20T14:12:04.331Z,21.40
2023-05-20T14:14:31.080Z,21.40
2023-05-20T14:16:57.852Z,21.40
2023-05-20T14:19:24.788Z,21.40
2023-05-20T14:21:51.697Z,21.40
2023-05-20T14:24:18.389Z,21.40
2023-05-20T14:26:45.053Z,21.40
2023-05-20T14:29:11.854Z,21.30
2023-05-20T14:31:39.336Z,21.30
2023-05-20T14:34:06.164Z,21.30
2023-05-20T14:36:32.965Z,21.30
2023-05-20T14:38:59.615Z,21.30
2023-05-20T14:41:26.283Z,21.30
2023-05-20T14:43:53.019Z,21.30
2023-05-20T14:46:19.819Z,21.40
2023-05-20T14:48:46.516Z,21.40
2023-05-20T14:51:13.327Z,21.40
2023-05-20T14:53:40.009Z,21.40
2023-05-20T14:56:06.877Z,21.40
2023-05-20T14:58:33.626Z,21.40
2023-05-20T15:01:00.587Z,21.40
2023-05-20T15:03:28.118Z,21.40
2023-05-20T15:05:54.942Z,21.40
2023-05-20T15:08:22.030Z,21.40
2023-05-20T15:10:48.941Z,21.40
2023-05-20T15:13:15.627Z,21.30
2023-05-20T15:15:42.298Z,21.30
2023-05-20T15:18:09.343Z,21.30
2023-05-20T15:20:36.035Z,21.30
2023-05-20T15:23:03.890Z,21.20
2023-05-20T15:25:30.673Z,21.20
2023-05-20T15:27:57.324Z,21.20
2023-05-20T15:30:24.231Z,21.20
2023-05-20T15:32:51.004Z,21.20
2023-05-20T15:35:17.768Z,21.20
2023-05-20T15:37:44.476Z,21.20
2023-05-20T15:40:11.423Z,21.10
2023-05-20T15:42:38.137Z,21.10
2023-05-20T15:45:05.131Z,21.10
2023-05-20T15:47:31.808Z,21.00
2023-05-20T15:49:58.475Z,21.00
2023-05-20T15:52:25.171Z,21.00
2023-05-20T15:54:51.950Z,21.00
2023-05-20T15:57:19.066Z,20.90
2023-05-20T15:59:45.940Z,21.00
2023-05-20T16:02:12.745Z,21.00
2023-05-20T16:04:39.489Z,21.00
2023-05-20T16:07:06.179Z,21.00
2023-05-20T16:09:32.831Z,21.00
2023-05-20T16:11:59.701Z,21.00
2023-05-20T16:14:26.433Z,21.10
2023-05-20T16:16:53.164Z,21.10
2023-05-20T16:19:19.914Z,21.10
2023-05-20T16:21:46.682Z,21.10
2023-05-20T16:24:13.811Z,21.10
2023-05-20T16:26:40.604Z,21.20
2023-05-20T16:29:07.312Z,21.20
2023-05-20T16:31:34.044Z,21.20
2023-05-20T16:34:00.891Z,21.20
2023-05-20T16:36:27.605Z,21.20
2023-05-20T16:38:54.338Z,21.20
2023-05-20T16:41:21.527Z,21.20
2023-05-20T16:43:48.189Z,21.20
2023-05-20T16:46:15.101Z,21.20
2023-05-20T16:48:42.619Z,21.20
2023-05-20T16:51:09.357Z,21.30
2023-05-20T16:53:36.363Z,21.30
2023-05-20T16:56:06.070Z,21.30
2023-05-20T16:58:32.759Z,21.30
2023-05-20T17:00:59.514Z,21.30
2023-05-20T17:03:26.186Z,21.30
2023-05-20T17:05:52.869Z,21.30
2023-05-20T17:08:19.540Z,21.30
2023-05-20T17:10:46.567Z,21.30
2023-05-20T17:13:13.254Z,21.30
2023-05-20T17:15:39.895Z,21.20
2023-05-20T17:18:06.825Z,21.20
2023-05-20T17:20:33.708Z,21.20
2023-05-20T17:23:00.690Z,21.10
2023-05-20T17:25:27.382Z,21.10
2023-05-20T17:27:54.080Z,21.10
2023-05-20T17:30:21.145Z,21.00
2023-05-20T17:32:47.925Z,21.00
2023-05-20T17:35:14.705Z,20.90
2023-05-20T17:37:41.679Z,20.90
2023-05-20T17:40:09.199Z,20.80
2023-05-20T17:42:36.033Z,20.80
2023-05-20T17:45:02.737Z,20.70
2023-05-20T17:47:29.465Z,20.70
2023-05-20T17:49:56.350Z,20.60
2023-05-20T17:52:23.013Z,20.60
2023-05-20T17:54:49.722Z,20.50
2023-05-20T17:57:16.455Z,20.50
2023-05-20T17:59:45.362Z,20.40
2023-05-20T18:02:12.559Z,20.40
2023-05-20T18:04:39.289Z,20.30
2023-05-20T18:07:07.338Z,20.30
2023-05-20T18:09:34.104Z,20.30
2023-05-20T18:12:00.844Z,20.20
2023-05-20T18:14:27.507Z,20.20
2023-05-20T18:17:00.947Z,20.20
2023-05-20T18:19:27.828Z,20.10
2023-05-20T18:21:54.797Z,20.10
2023-05-20T18:24:21.478Z,20.00
2023-05-20T18:26:48.209Z,20.00
2023-05-20T18:29:14.960Z,19.90
2023-05-20T18:31:43.362Z,19.80
2023-05-20T18:34:10.693Z,19.70
2023-05-20T18:36:37.735Z,19.70
2023-05-20T18:39:04.837Z,19.60
2023-05-20T18:41:43.260Z,19.50
2023-05-20T18:44:14.215Z,19.50
2023-05-20T18:46:40.996Z,19.50
2023-05-20T18:49:07.935Z,19.50
2023-05-20T18:51:34.649Z,19.40
2023-05-20T18:54:01.552Z,19.40
2023-05-20T18:56:28.543Z,19.30
2023-05-20T18:58:55.364Z,19.30
2023-05-20T19:01:22.227Z,19.30
2023-05-20T19:03:49.019Z,19.20
2023-05-20T19:06:16.434Z,19.20
2023-05-20T19:08:46.445Z,19.20
2023-05-20T19:11:13.091Z,19.20
2023-05-20T19:13:39.795Z,19.10
2023-05-20T19:16:06.974Z,19.10
2023-05-20T19:18:33.717Z,19.10
2023-05-20T19:21:00.496Z,19.00
2023-05-20T19:23:27.131Z,19.00
2023-05-20T19:25:53.826Z,19.00
2023-05-20T19:28:20.675Z,18.90
2023-05-20T19:30:47.421Z,18.90
2023-05-20T19:33:14.130Z,18.90
2023-05-20T19:35:40.815Z,18.80
2023-05-20T19:38:07.531Z,18.80
2023-05-20T19:40:35.555Z,18.80
2023-05-20T19:43:02.347Z,18.80
2023-05-20T19:45:29.059Z,18.70
2023-05-20T19:47:56.634Z,18.70
2023-05-20T19:50:23.412Z,18.60
2023-05-20T19:52:50.264Z,18.60
2023-05-20T19:55:16.980Z,18.60
2023-05-20T19:57:46.637Z,18.50
2023-05-20T20:00:13.818Z,18.50
2023-05-20T20:02:40.974Z,18.50
2023-05-20T20:05:08.786Z,18.40
2023-05-20T20:07:35.564Z,18.40
2023-05-20T20:10:02.321Z,18.30
2023-05-20T20:12:29.083Z,18.20
2023-05-20T20:14:56.258Z,18.20
2023-05-20T20:17:23.710Z,18.10
2023-05-20T20:19:53.272Z,18.10
2023-05-20T20:22:20.164Z,18.10
2023-05-20T20:24:47.049Z,18.00
2023-05-20T20:27:13.860Z,17.90
2023-05-20T20:29:43.332Z,17.90
2023-05-20T20:32:10.315Z,17.90
2023-05-20T20:34:37.414Z,17.80
2023-05-20T20:37:04.436Z,17.80
2023-05-20T20:39:31.235Z,17.80
2023-05-20T20:41:58.786Z,17.70
2023-05-20T20:44:26.705Z,17.60
2023-05-20T20:46:54.828Z,17.60
2023-05-20T20:49:22.792Z,17.60
2023-05-20T20:51:50.802Z,17.50
2023-05-20T20:54:17.528Z,17.50
2023-05-20T20:56:45.402Z,17.50
2023-05-20T20:59:13.513Z,17.40
2023-05-20T21:01:44.587Z,17.40
2023-05-20T21:04:13.573Z,17.40
2023-05-20T21:06:42.086Z,17.40
2023-05-20T21:09:09.453Z,17.40
2023-05-20T21:11:38.336Z,17.30
2023-05-20T21:14:05.425Z,17.40
2023-05-20T21:16:32.469Z,17.40
2023-05-20T21:18:59.227Z,17.30
2023-05-20T21:21:26.020Z,17.30
2023-05-20T21:23:54.162Z,17.40
2023-05-20T21:26:24.789Z,17.30
2023-05-20T21:28:52.301Z,17.30
2023-05-20T21:31:19.110Z,17.30
2023-05-20T21:33:45.902Z,17.20
2023-05-20T21:36:12.606Z,17.20
2023-05-20T21:38:39.831Z,17.20
2023-05-20T21:41:06.813Z,17.20
2023-05-20T21:43:33.471Z,17.20
2023-05-20T21:46:00.384Z,17.10
2023-05-20T21:48:27.135Z,17.10
2023-05-20T21:50:53.878Z,17.10
2023-05-20T21:53:20.657Z,17.10
2023-05-20T21:55:47.313Z,17.00
2023-05-20T21:58:14.057Z,17.00
2023-05-20T22:00:41.029Z,17.00
2023-05-20T22:03:07.938Z,16.90
2023-05-20T22:05:35.182Z,16.90
2023-05-20T22:08:02.056Z,16.90
2023-05-20T22:10:28.817Z,16.90
2023-05-20T22:12:55.771Z,16.80
2023-05-20T22:15:22.989Z,16.80
2023-05-20T22:17:49.823Z,16.80
2023-05-20T22:20:16.732Z,16.70
2023-05-20T22:22:43.379Z,16.70
2023-05-20T22:25:10.823Z,16.70
2023-05-20T22:27:38.639Z,16.60
2023-05-20T22:30:08.130Z,16.70
2023-05-20T22:32:34.849Z,16.60
2023-05-20T22:35:01.543Z,16.60
2023-05-20T22:37:31.242Z,16.60
2023-05-20T22:39:57.951Z,16.50
2023-05-20T22:42:24.649Z,16.50
2023-05-20T22:44:51.398Z,16.50
2023-05-20T22:47:18.147Z,16.40
2023-05-20T22:49:44.999Z,16.40
2023-05-20T22:52:11.804Z,16.40
2023-05-20T22:54:38.484Z,16.30
2023-05-20T22:57:05.390Z,16.20
2023-05-20T22:59:32.852Z,16.20
2023-05-20T23:01:59.645Z,16.20
2023-05-20T23:04:26.551Z,16.10
2023-05-20T23:06:53.919Z,16.10
2023-05-20T23:09:21.017Z,16.10
2023-05-20T23:11:47.741Z,16.10
2023-05-20T23:14:14.434Z,16.10
2023-05-20T23:16:42.105Z,16.10
2023-05-20T23:19:09.149Z,16.00
2023-05-20T23:21:37.301Z,16.00
2023-05-20T23:24:04.533Z,16.00
2023-05-20T23:26:31.560Z,16.00
2023-05-20T23:28:58.287Z,16.00
2023-05-20T23:31:26.851Z,15.90
2023-05-20T23:33:54.217Z,15.90
2023-05-20T23:36:21.077Z,15.90
2023-05-20T23:38:47.817Z,15.90
2023-05-20T23:41:14.510Z,15.90
2023-05-20T23:43:41.306Z,15.90
2023-05-20T23:46:08.274Z,15.80
2023-05-20T23:48:35.969Z,15.80
2023-05-20T23:51:03.211Z,15.80
2023-05-20T23:53:30.058Z,15.80
2023-05-20T23:55:56.782Z,15.80
2023-05-20T23:58:23.578Z,15.80
